createdAt,value
2018-12-27T00:02:21.109Z,77.50
2018-12-27T00:04:56.443Z,77.50
2018-12-27T00:07:29.633Z,77.50
2018-12-27T00:10:10.285Z,77.60
2018-12-27T00:12:46.360Z,77.60
2018-12-27T00:18:15.251Z,77.70
2018-12-27T00:20:53.356Z,77.70
2018-12-27T00:23:31.462Z,77.60
2018-12-27T00:26:07.029Z,77.70
2018-12-27T00:28:43.756Z,77.60
2018-12-27T00:31:25.392Z,77.60
2018-12-27T00:33:50.588Z,77.50
2018-12-27T00:36:21.736Z,77.60
2018-12-27T00:38:53.008Z,77.60
2018-12-27T00:41:41.660Z,77.70
2018-12-27T00:44:19.701Z,77.60
2018-12-27T00:46:54.181Z,77.70
2018-12-27T00:49:58.816Z,77.70
2018-12-27T00:52:32.206Z,77.60
2018-12-27T00:55:11.953Z,77.80
2018-12-27T00:57:58.009Z,77.90
2018-12-27T01:00:31.347Z,78.00
2018-12-27T01:03:18.500Z,78.00
2018-12-27T01:05:54.144Z,78.00
2018-12-27T01:08:31.945Z,78.20
2018-12-27T01:11:08.462Z,78.40
2018-12-27T01:13:42.016Z,78.50
2018-12-27T01:16:16.913Z,78.60
2018-12-27T01:18:52.569Z,78.60
2018-12-27T01:21:35.995Z,78.60
2018-12-27T01:24:09.682Z,79.40
2018-12-27T01:26:41.235Z,78.70
2018-12-27T01:29:17.242Z,78.70
2018-12-27T01:31:51.412Z,78.60
2018-12-27T01:34:25.321Z,78.80
2018-12-27T01:37:23.367Z,78.70
2018-12-27T01:40:15.026Z,78.60
2018-12-27T01:42:47.284Z,78.70
2018-12-27T01:48:07.536Z,78.80
2018-12-27T01:50:51.469Z,78.70
2018-12-27T01:53:38.701Z,78.70
2018-12-27T01:56:19.275Z,78.90
2018-12-27T01:58:53.429Z,79.00
2018-12-27T02:01:35.837Z,79.00
2018-12-27T02:04:07.347Z,78.90
2018-12-27T02:06:45.131Z,79.70
2018-12-27T02:09:19.087Z,78.90
2018-12-27T02:11:49.739Z,78.80
2018-12-27T02:14:23.752Z,78.70
2018-12-27T02:16:57.965Z,78.70
2018-12-27T02:19:32.709Z,78.90
2018-12-27T02:22:05.633Z,78.70
2018-12-27T02:24:41.696Z,78.50
2018-12-27T02:27:17.373Z,78.60
2018-12-27T02:29:53.730Z,78.50
2018-12-27T02:32:32.826Z,79.10
2018-12-27T02:35:13.522Z,78.30
2018-12-27T02:37:53.826Z,78.40
2018-12-27T02:40:31.298Z,78.20
2018-12-27T02:43:47.787Z,78.20
2018-12-27T02:46:11.408Z,78.30
2018-12-27T02:48:45.717Z,78.20
2018-12-27T02:51:23.662Z,78.20
2018-12-27T02:56:54.806Z,78.10
2018-12-27T02:59:30.702Z,78.20
2018-12-27T03:02:11.900Z,78.20
2018-12-27T03:04:43.574Z,78.20
2018-12-27T03:07:23.938Z,78.30
2018-12-27T03:09:56.283Z,78.30
2018-12-27T03:12:30.691Z,78.30
2018-12-27T03:15:03.593Z,78.40
2018-12-27T03:17:39.526Z,78.40
2018-12-27T03:20:29.515Z,78.50
2018-12-27T03:24:08.028Z,78.60
2018-12-27T03:26:32.501Z,78.50
2018-12-27T03:29:08.728Z,78.60
2018-12-27T03:31:52.979Z,78.60
2018-12-27T03:34:39.795Z,78.70
2018-12-27T03:37:10.697Z,78.70
2018-12-27T03:39:47.299Z,78.70
2018-12-27T03:42:54.128Z,78.70
2018-12-27T03:45:59.192Z,78.60
2018-12-27T03:48:33.334Z,78.50
2018-12-27T03:51:09.701Z,78.60
2018-12-27T03:53:46.338Z,78.50
2018-12-27T03:56:25.953Z,78.60
2018-12-27T03:59:16.041Z,78.50
2018-12-27T04:01:48.861Z,78.50
2018-12-27T04:04:29.220Z,78.40
2018-12-27T04:07:03.311Z,78.40
2018-12-27T04:09:38.731Z,78.50
2018-12-27T04:12:17.366Z,78.30
2018-12-27T04:14:56.857Z,78.40
2018-12-27T04:17:42.139Z,78.30
2018-12-27T04:20:29.883Z,78.20
2018-12-27T04:23:11.050Z,78.20
2018-12-27T04:25:57.604Z,78.20
2018-12-27T04:28:27.946Z,78.20
2018-12-27T04:31:02.192Z,78.20
2018-12-27T04:33:36.169Z,78.20
2018-12-27T04:36:21.901Z,78.20
2018-12-27T04:38:49.656Z,78.20
2018-12-27T04:41:24.419Z,78.20
2018-12-27T04:46:43.192Z,78.20
2018-12-27T04:49:18.444Z,78.40
2018-12-27T04:51:53.958Z,78.30
2018-12-27T04:54:30.123Z,78.40
2018-12-27T04:57:13.180Z,78.30
2018-12-27T04:59:40.006Z,78.20
2018-12-27T05:02:21.522Z,78.30
2018-12-27T05:04:53.095Z,78.20
2018-12-27T05:07:28.309Z,78.20
2018-12-27T05:10:05.765Z,78.10
2018-12-27T05:12:38.925Z,78.10
2018-12-27T05:15:14.366Z,77.90
2018-12-27T05:18:06.651Z,78.00
2018-12-27T05:20:41.760Z,78.00
2018-12-27T05:23:15.782Z,78.00
2018-12-27T05:25:55.182Z,77.90
2018-12-27T05:28:29.657Z,78.00
2018-12-27T05:31:07.657Z,77.90
2018-12-27T05:33:43.313Z,77.70
2018-12-27T05:36:25.064Z,77.70
2018-12-27T05:38:55.925Z,77.70
2018-12-27T05:41:28.387Z,77.50
2018-12-27T05:44:05.007Z,77.60
2018-12-27T05:46:43.784Z,77.50
2018-12-27T05:49:14.865Z,77.50
2018-12-27T05:52:01.936Z,77.50
2018-12-27T05:54:34.581Z,77.50
2018-12-27T05:57:12.079Z,77.50
2018-12-27T05:59:44.909Z,77.40
2018-12-27T06:02:19.221Z,77.30
2018-12-27T06:04:55.705Z,77.30
2018-12-27T06:07:29.477Z,77.20
2018-12-27T06:10:01.873Z,77.30
2018-12-27T06:12:32.798Z,77.30
2018-12-27T06:18:14.979Z,77.20
2018-12-27T06:20:49.298Z,77.20
2018-12-27T06:23:28.904Z,77.20
2018-12-27T06:26:14.694Z,77.20
2018-12-27T06:28:54.310Z,77.10
2018-12-27T06:31:32.818Z,77.20
2018-12-27T06:34:14.921Z,77.10
2018-12-27T06:36:53.752Z,77.20
2018-12-27T06:39:32.082Z,77.20
2018-12-27T06:42:08.942Z,77.20
2018-12-27T06:44:45.980Z,77.20
2018-12-27T06:47:23.845Z,77.20
2018-12-27T06:49:58.359Z,77.10
2018-12-27T06:52:38.208Z,77.10
2018-12-27T06:55:22.564Z,77.00
2018-12-27T06:58:22.743Z,77.00
2018-12-27T07:00:37.031Z,77.00
2018-12-27T07:03:12.576Z,77.00
2018-12-27T07:06:12.281Z,76.90
2018-12-27T07:09:10.556Z,77.00
2018-12-27T07:12:40.437Z,76.90
2018-12-27T07:15:16.551Z,77.00
2018-12-27T07:18:06.401Z,77.00
2018-12-27T07:20:49.575Z,77.10
2018-12-27T07:23:51.257Z,77.20
2018-12-27T07:26:44.516Z,77.20
2018-12-27T07:29:28.536Z,77.20
2018-12-27T07:32:05.924Z,77.10
2018-12-27T07:34:58.840Z,77.80
2018-12-27T07:37:36.381Z,77.00
2018-12-27T07:40:35.361Z,77.10
2018-12-27T07:43:15.279Z,77.10
2018-12-27T07:46:11.067Z,77.20
2018-12-27T07:48:42.739Z,77.00
2018-12-27T07:51:31.706Z,77.00
2018-12-27T07:54:03.096Z,77.00
2018-12-27T07:56:39.513Z,76.80
2018-12-27T07:59:59.184Z,76.80
2018-12-27T08:02:11.152Z,76.70
2018-12-27T08:05:03.869Z,76.50
2018-12-27T08:07:39.294Z,76.30
2018-12-27T08:10:23.109Z,76.30
2018-12-27T08:12:57.675Z,76.30
2018-12-27T08:15:33.800Z,76.20
2018-12-27T08:18:10.471Z,76.30
2018-12-27T08:20:43.224Z,76.30
2018-12-27T08:23:22.037Z,76.20
2018-12-27T08:25:58.453Z,76.10
2018-12-27T08:28:37.093Z,76.10
2018-12-27T08:31:13.463Z,76.20
2018-12-27T08:33:43.289Z,76.10
2018-12-27T08:36:21.087Z,76.10
2018-12-27T08:38:58.838Z,75.90
2018-12-27T08:41:31.163Z,75.90
2018-12-27T08:44:10.189Z,75.90
2018-12-27T08:46:52.030Z,76.70
2018-12-27T08:49:21.017Z,75.90
2018-12-27T08:51:55.589Z,76.00
2018-12-27T08:54:29.608Z,76.00
2018-12-27T08:57:02.463Z,75.70
2018-12-27T08:59:39.779Z,75.70
2018-12-27T09:02:11.082Z,75.60
2018-12-27T09:04:44.311Z,75.50
2018-12-27T09:07:18.635Z,75.50
2018-12-27T09:09:51.725Z,75.40
2018-12-27T09:12:31.643Z,75.40
2018-12-27T09:15:02.142Z,75.20
2018-12-27T09:17:33.875Z,75.30
2018-12-27T09:20:13.664Z,75.20
2018-12-27T09:22:50.934Z,75.30
2018-12-27T09:25:34.259Z,75.30
2018-12-27T09:28:07.321Z,75.30
2018-12-27T09:30:38.517Z,75.50
2018-12-27T09:33:37.258Z,75.40
2018-12-27T09:36:26.190Z,75.40
2018-12-27T09:38:58.994Z,75.20
2018-12-27T09:41:30.255Z,75.00
2018-12-27T09:44:07.124Z,74.80
2018-12-27T09:46:45.748Z,74.80
2018-12-27T09:49:17.122Z,74.80
2018-12-27T09:51:52.192Z,75.50
2018-12-27T09:54:23.163Z,74.40
2018-12-27T09:56:58.822Z,74.20
2018-12-27T09:59:36.678Z,73.90
2018-12-27T10:02:12.711Z,73.60
2018-12-27T10:04:45.152Z,73.10
2018-12-27T10:07:22.062Z,72.30
2018-12-27T10:09:58.449Z,72.00
2018-12-27T10:12:29.488Z,71.80
2018-12-27T10:15:02.114Z,71.40
2018-12-27T10:17:40.791Z,71.00
2018-12-27T10:20:11.956Z,70.70
2018-12-27T10:22:43.109Z,69.60
2018-12-27T10:25:21.119Z,69.80
2018-12-27T10:28:01.561Z,69.70
2018-12-27T10:30:43.185Z,69.70
2018-12-27T10:33:15.550Z,70.40
2018-12-27T10:35:54.648Z,69.60
2018-12-27T10:38:31.284Z,69.20
2018-12-27T10:41:01.054Z,68.90
2018-12-27T10:43:34.635Z,68.80
2018-12-27T10:46:07.312Z,69.40
2018-12-27T10:48:39.899Z,68.30
2018-12-27T10:51:14.519Z,68.10
2018-12-27T10:53:51.910Z,67.90
2018-12-27T10:56:32.381Z,67.60
2018-12-27T10:59:04.024Z,67.30
2018-12-27T11:01:36.295Z,66.80
2018-12-27T11:04:07.336Z,66.50
2018-12-27T11:06:40.499Z,66.70
2018-12-27T11:09:21.694Z,65.50
2018-12-27T11:11:55.175Z,65.20
2018-12-27T11:14:31.987Z,65.40
2018-12-27T11:17:03.317Z,65.10
2018-12-27T11:19:39.502Z,65.40
2018-12-27T11:22:20.727Z,64.70
2018-12-27T11:24:42.899Z,64.30
2018-12-27T11:27:14.464Z,64.30
2018-12-27T11:29:46.916Z,63.80
2018-12-27T11:32:18.642Z,63.70
2018-12-27T11:34:53.104Z,63.40
2018-12-27T11:37:25.510Z,63.50
2018-12-27T11:40:01.705Z,63.40
2018-12-27T11:42:36.187Z,63.00
2018-12-27T11:45:18.553Z,63.00
2018-12-27T11:48:14.141Z,62.50
2018-12-27T11:51:08.749Z,62.10
2018-12-27T11:53:44.280Z,61.80
2018-12-27T11:56:20.748Z,61.60
2018-12-27T11:58:57.186Z,61.40
2018-12-27T12:01:37.270Z,61.50
2018-12-27T12:04:17.592Z,61.10
2018-12-27T12:07:01.472Z,60.60
2018-12-27T12:09:50.879Z,60.40
2018-12-27T12:12:32.665Z,60.00
2018-12-27T12:15:10.362Z,59.80
2018-12-27T12:17:41.539Z,59.50
2018-12-27T12:20:48.093Z,59.20
2018-12-27T12:23:25.634Z,59.70
2018-12-27T12:25:58.496Z,58.50
2018-12-27T12:28:41.758Z,58.30
2018-12-27T12:31:30.344Z,58.20
2018-12-27T12:34:11.849Z,58.20
2018-12-27T12:36:58.725Z,58.20
2018-12-27T12:39:34.276Z,57.90
2018-12-27T12:42:16.071Z,57.50
2018-12-27T12:44:57.550Z,57.20
2018-12-27T12:47:38.127Z,57.20
2018-12-27T12:50:43.385Z,57.10
2018-12-27T12:53:25.556Z,57.90
2018-12-27T12:56:00.692Z,57.60
2018-12-27T12:58:43.773Z,57.60
2018-12-27T13:01:38.597Z,57.60
2018-12-27T13:04:40.777Z,57.70
2018-12-27T13:07:22.714Z,57.10
2018-12-27T13:10:15.472Z,57.20
2018-12-27T13:13:02.778Z,57.10
2018-12-27T13:15:35.509Z,57.40
2018-12-27T13:18:21.134Z,57.30
2018-12-27T13:20:56.883Z,57.50
2018-12-27T13:23:42.769Z,57.60
2018-12-27T13:26:35.633Z,57.60
2018-12-27T13:32:11.491Z,57.80
2018-12-27T13:34:46.431Z,57.80
2018-12-27T13:37:27.802Z,57.60
2018-12-27T13:40:03.299Z,57.40
2018-12-27T13:42:49.361Z,57.30
2018-12-27T13:45:38.929Z,57.00
2018-12-27T13:48:07.699Z,56.70
2018-12-27T13:50:42.273Z,56.90
2018-12-27T13:56:26.133Z,56.70
2018-12-27T13:59:20.820Z,56.80
2018-12-27T14:02:00.915Z,56.90
2018-12-27T14:04:58.730Z,56.80
2018-12-27T14:08:02.036Z,57.00
2018-12-27T14:11:14.208Z,57.50
2018-12-27T14:13:58.835Z,56.80
2018-12-27T14:16:57.837Z,57.30
2018-12-27T14:19:32.776Z,56.80
2018-12-27T14:22:13.462Z,56.70
2018-12-27T14:25:27.140Z,56.70
2018-12-27T14:27:56.243Z,56.60
2018-12-27T14:30:36.028Z,57.00
2018-12-27T14:36:48.340Z,56.70
2018-12-27T14:42:09.234Z,56.90
2018-12-27T14:44:54.796Z,56.90
2018-12-27T14:51:04.381Z,57.00
2018-12-27T14:54:16.078Z,57.20
2018-12-27T14:57:01.839Z,57.40
2018-12-27T15:00:30.427Z,57.50
2018-12-27T15:07:33.466Z,57.80
2018-12-27T15:14:12.183Z,58.00
2018-12-27T15:19:06.814Z,58.20
2018-12-27T15:20:10.279Z,58.30
2018-12-27T15:22:59.719Z,58.30
2018-12-27T15:30:14.736Z,58.50
2018-12-27T15:33:02.791Z,58.50
2018-12-27T15:38:02.923Z,58.70
2018-12-27T15:40:50.791Z,58.70
2018-12-27T15:44:06.670Z,58.70
2018-12-27T15:47:17.761Z,58.60
2018-12-27T15:50:28.686Z,58.70
2018-12-27T16:09:32.690Z,58.80
2018-12-27T16:10:38.129Z,58.60
2018-12-27T16:12:20.885Z,58.80
2018-12-27T16:15:12.358Z,58.90
2018-12-27T16:18:11.860Z,58.90
2018-12-27T16:20:40.496Z,58.90
2018-12-27T16:23:18.100Z,58.80
2018-12-27T16:26:27.378Z,58.80
2018-12-27T16:28:48.007Z,58.90
2018-12-27T16:31:45.157Z,58.90
2018-12-27T16:34:26.255Z,58.90
2018-12-27T16:37:08.597Z,58.90
2018-12-27T16:39:40.780Z,58.80
2018-12-27T16:42:44.142Z,58.90
2018-12-27T16:45:29.626Z,58.80
2018-12-27T16:48:14.791Z,58.80
2018-12-27T16:50:58.161Z,58.90
2018-12-27T16:53:42.881Z,58.80
2018-12-27T16:57:52.664Z,58.70
2018-12-27T17:05:49.577Z,58.70
2018-12-27T17:06:59.695Z,58.70
2018-12-27T17:08:39.966Z,58.80
2018-12-27T17:11:24.195Z,58.80
2018-12-27T17:14:56.584Z,58.90
2018-12-27T17:16:57.638Z,58.90
2018-12-27T17:19:34.288Z,58.90
2018-12-27T17:22:11.861Z,59.00
2018-12-27T17:25:02.449Z,59.10
2018-12-27T17:28:34.529Z,59.10
2018-12-27T17:31:16.969Z,59.10
2018-12-27T17:34:25.886Z,59.10
2018-12-27T17:37:23.261Z,59.00
2018-12-27T17:40:24.503Z,59.10
2018-12-27T17:43:28.672Z,59.10
2018-12-27T17:52:45.693Z,59.00
2018-12-27T17:58:49.428Z,59.10
2018-12-27T18:01:17.935Z,58.80
2018-12-27T18:03:49.485Z,58.80
2018-12-27T18:06:24.783Z,58.70
2018-12-27T18:08:59.025Z,58.50
2018-12-27T18:11:38.164Z,58.40
2018-12-27T18:14:19.784Z,58.40
2018-12-27T18:16:55.268Z,58.30
2018-12-27T18:19:26.478Z,58.20
2018-12-27T18:22:00.052Z,58.20
2018-12-27T18:24:33.906Z,58.30
2018-12-27T18:27:31.683Z,58.30
2018-12-27T18:30:03.959Z,58.30
2018-12-27T18:32:39.007Z,58.10
2018-12-27T18:35:19.772Z,58.00
2018-12-27T18:37:52.044Z,57.90
2018-12-27T18:40:27.789Z,58.50
2018-12-27T18:43:14.107Z,57.40
2018-12-27T18:45:50.052Z,57.40
2018-12-27T18:48:42.691Z,57.40
2018-12-27T18:51:19.595Z,57.30
2018-12-27T18:54:02.153Z,57.20
2018-12-27T18:56:41.441Z,57.20
2018-12-27T18:59:23.239Z,57.20
2018-12-27T19:02:02.240Z,57.20
2018-12-27T19:04:43.048Z,57.10
2018-12-27T19:07:22.573Z,57.20
2018-12-27T19:09:54.004Z,57.10
2018-12-27T19:13:30.883Z,57.10
2018-12-27T19:17:01.333Z,57.20
2018-12-27T19:19:32.941Z,57.10
2018-12-27T19:23:07.121Z,57.10
2018-12-27T19:25:37.451Z,57.20
2018-12-27T19:28:33.161Z,57.30
2018-12-27T19:35:44.873Z,57.60
2018-12-27T19:41:41.463Z,57.80
2018-12-27T19:44:50.839Z,57.80
2018-12-27T19:47:57.407Z,57.90
2018-12-27T19:50:26.599Z,57.90
2018-12-27T19:52:59.306Z,58.00
2018-12-27T19:55:39.482Z,57.90
2018-12-27T19:58:35.085Z,58.00
2018-12-27T20:01:41.574Z,58.50
2018-12-27T20:04:35.621Z,57.10
2018-12-27T20:07:42.092Z,57.30
2018-12-27T20:10:30.154Z,57.00
2018-12-27T20:13:08.117Z,57.00
2018-12-27T20:15:52.317Z,57.40
2018-12-27T20:18:58.452Z,57.70
2018-12-27T20:24:00.370Z,58.30
2018-12-27T20:26:33.061Z,58.30
2018-12-27T20:29:09.105Z,58.30
2018-12-27T20:31:56.746Z,58.50
2018-12-27T20:34:58.768Z,58.80
2018-12-27T20:37:52.249Z,59.10
2018-12-27T20:41:58.823Z,59.20
2018-12-27T20:44:38.030Z,59.50
2018-12-27T20:47:12.815Z,59.80
2018-12-27T20:49:58.690Z,60.10
2018-12-27T20:52:27.859Z,61.30
2018-12-27T20:55:00.242Z,61.00
2018-12-27T20:57:35.303Z,61.50
2018-12-27T21:00:12.491Z,61.80
2018-12-27T21:02:49.822Z,62.20
2018-12-27T21:05:24.413Z,62.30
2018-12-27T21:08:06.240Z,62.60
2018-12-27T21:10:38.809Z,62.80
2018-12-27T21:13:15.606Z,63.10
2018-12-27T21:16:16.374Z,63.40
2018-12-27T21:19:12.094Z,63.40
2018-12-27T21:21:43.262Z,63.40
2018-12-27T21:24:19.971Z,63.40
2018-12-27T21:26:52.297Z,63.60
2018-12-27T21:29:52.060Z,63.90
2018-12-27T21:33:37.791Z,63.90
2018-12-27T21:35:24.619Z,64.20
2018-12-27T21:38:04.720Z,64.20
2018-12-27T21:40:51.007Z,64.30
2018-12-27T21:43:23.843Z,64.50
2018-12-27T21:46:08.189Z,64.50
2018-12-27T21:49:18.799Z,64.50
2018-12-27T21:51:52.420Z,64.40
2018-12-27T21:54:39.714Z,64.40
2018-12-27T21:57:14.706Z,64.40
2018-12-27T21:59:47.304Z,63.90
2018-12-27T22:02:20.887Z,64.40
2018-12-27T22:04:56.867Z,64.50
2018-12-27T22:07:39.883Z,64.70
2018-12-27T22:10:18.594Z,64.70
2018-12-27T22:12:57.628Z,64.80
2018-12-27T22:15:46.053Z,64.80
2018-12-27T22:18:27.461Z,64.80
2018-12-27T22:21:11.750Z,64.60
2018-12-27T22:23:47.232Z,64.60
2018-12-27T22:26:32.270Z,64.60
2018-12-27T22:29:10.546Z,64.50
2018-12-27T22:31:50.968Z,64.50
2018-12-27T22:34:57.358Z,64.40
2018-12-27T22:37:04.587Z,64.40
2018-12-27T22:39:37.335Z,64.00
2018-12-27T22:42:13.521Z,63.90
2018-12-27T22:44:50.745Z,63.70
2018-12-27T22:47:29.686Z,63.60
2018-12-27T22:50:04.187Z,63.60
2018-12-27T22:52:41.135Z,63.60
2018-12-27T22:55:15.385Z,63.70
2018-12-27T22:57:48.776Z,63.50
2018-12-27T23:00:39.167Z,63.40
2018-12-27T23:03:23.149Z,63.20
2018-12-27T23:06:03.083Z,62.90
2018-12-27T23:08:33.051Z,62.70
2018-12-27T23:11:21.937Z,62.60
2018-12-27T23:14:00.305Z,62.40
2018-12-27T23:16:30.199Z,62.30
2018-12-27T23:19:25.813Z,62.10
2018-12-27T23:24:47.421Z,62.30
2018-12-27T23:27:37.132Z,62.10
2018-12-27T23:30:23.371Z,62.10
2018-12-27T23:33:32.857Z,62.20
2018-12-27T23:36:43.931Z,62.20
2018-12-27T23:39:23.559Z,62.20
2018-12-27T23:42:09.644Z,62.20
2018-12-27T23:45:01.382Z,62.30
2018-12-27T23:47:54.173Z,62.50
2018-12-27T23:50:37.546Z,62.40
2018-12-27T23:56:33.507Z,62.60
2018-12-27T23:59:01.619Z,62.50
